createdAt,value
2022-10-09T00:00:26.427Z,1019.54
2022-10-09T00:01:04.603Z,1019.54
2022-10-09T00:01:30.902Z,1019.54
2022-10-09T00:02:03.004Z,1019.54
2022-10-09T00:02:34.478Z,1019.54
2022-10-09T00:02:57.131Z,1019.64
2022-10-09T00:03:19.823Z,1019.64
2022-10-09T00:03:55.029Z,1019.64
2022-10-09T00:04:27.430Z,1019.54
2022-10-09T00:04:59.510Z,1019.54
2022-10-09T00:05:30.468Z,1019.44
2022-10-09T00:06:02.324Z,1019.44
2022-10-09T00:06:34.889Z,1019.54
2022-10-09T00:06:57.671Z,1019.64
2022-10-09T00:07:20.793Z,1019.64
2022-10-09T00:07:54.239Z,1019.64
2022-10-09T00:08:27.791Z,1019.23
2022-10-09T00:08:58.322Z,1019.23
2022-10-09T00:09:30.712Z,1019.54
2022-10-09T00:10:02.302Z,1019.54
2022-10-09T00:10:35.017Z,1019.64
2022-10-09T00:10:57.766Z,1019.64
2022-10-09T00:11:21.100Z,1019.64
2022-10-09T00:11:54.361Z,1019.64
2022-10-09T00:12:26.337Z,1019.44
2022-10-09T00:12:58.278Z,1019.44
2022-10-09T00:13:31.331Z,1019.34
2022-10-09T00:14:05.658Z,1019.54
2022-10-09T00:14:28.155Z,1019.54
2022-10-09T00:15:02.189Z,1019.54
2022-10-09T00:15:38.342Z,1019.54
2022-10-09T00:16:00.932Z,1019.54
2022-10-09T00:16:23.436Z,1019.54
2022-10-09T00:16:58.444Z,1019.54
2022-10-09T00:17:30.409Z,1019.54
2022-10-09T00:18:02.426Z,1019.54
2022-10-09T00:18:34.199Z,1019.64
2022-10-09T00:18:57.046Z,1019.54
2022-10-09T00:19:19.464Z,1019.54
2022-10-09T00:19:54.466Z,1019.54
2022-10-09T00:20:26.245Z,1019.64
2022-10-09T00:20:58.369Z,1019.64
2022-10-09T00:21:30.224Z,1019.54
2022-10-09T00:22:02.231Z,1019.54
2022-10-09T00:22:34.211Z,1019.54
2022-10-09T00:22:57.453Z,1019.34
2022-10-09T00:23:19.475Z,1019.34
2022-10-09T00:23:55.697Z,1019.34
2022-10-09T00:24:26.323Z,1019.64
2022-10-09T00:24:58.339Z,1019.64
2022-10-09T00:25:30.288Z,1019.54
2022-10-09T00:26:02.251Z,1019.54
2022-10-09T00:26:34.256Z,1019.54
2022-10-09T00:26:57.069Z,1019.54
2022-10-09T00:27:19.496Z,1019.54
2022-10-09T00:27:54.195Z,1019.54
2022-10-09T00:28:26.658Z,1019.54
2022-10-09T00:28:58.221Z,1019.54
2022-10-09T00:29:31.642Z,1019.44
2022-10-09T00:30:02.726Z,1019.44
2022-10-09T00:30:34.224Z,1019.44
2022-10-09T00:30:57.139Z,1019.64
2022-10-09T00:31:19.858Z,1019.64
2022-10-09T00:31:54.171Z,1019.64
2022-10-09T00:32:26.271Z,1019.74
2022-10-09T00:32:58.301Z,1019.74
2022-10-09T00:33:30.219Z,1019.54
2022-10-09T00:34:02.386Z,1019.54
2022-10-09T00:34:34.134Z,1019.64
2022-10-09T00:34:58.292Z,1019.44
2022-10-09T00:35:20.629Z,1019.44
2022-10-09T00:35:54.212Z,1019.44
2022-10-09T00:36:26.305Z,1019.44
2022-10-09T00:36:58.439Z,1019.44
2022-10-09T00:37:30.282Z,1019.54
2022-10-09T00:38:02.289Z,1019.54
2022-10-09T00:38:34.204Z,1019.44
2022-10-09T00:38:57.535Z,1019.54
2022-10-09T00:39:19.592Z,1019.54
2022-10-09T00:39:54.167Z,1019.54
2022-10-09T00:40:26.437Z,1019.54
2022-10-09T00:40:58.154Z,1019.54
2022-10-09T00:41:30.368Z,1019.64
2022-10-09T00:42:02.437Z,1019.64
2022-10-09T00:42:34.289Z,1019.74
2022-10-09T00:42:57.188Z,1019.44
2022-10-09T00:43:19.482Z,1019.44
2022-10-09T00:43:54.393Z,1019.44
2022-10-09T00:44:26.284Z,1019.64
2022-10-09T00:44:58.400Z,1019.64
2022-10-09T00:45:30.916Z,1019.54
2022-10-09T00:46:02.273Z,1019.54
2022-10-09T00:46:34.320Z,1019.44
2022-10-09T00:46:56.917Z,1019.54
2022-10-09T00:47:19.362Z,1019.54
2022-10-09T00:47:54.267Z,1019.54
2022-10-09T00:48:26.275Z,1019.64
2022-10-09T00:48:58.295Z,1019.64
2022-10-09T00:49:30.190Z,1019.44
2022-10-09T00:50:02.144Z,1019.44
2022-10-09T00:50:35.673Z,1019.54
2022-10-09T00:50:57.241Z,1019.64
2022-10-09T00:51:19.537Z,1019.64
2022-10-09T00:51:54.335Z,1019.64
2022-10-09T00:52:26.218Z,1019.54
2022-10-09T00:52:58.353Z,1019.54
2022-10-09T00:53:30.298Z,1019.64
2022-10-09T00:54:02.272Z,1019.64
2022-10-09T00:54:34.231Z,1019.54
2022-10-09T00:54:56.935Z,1019.64
2022-10-09T00:55:19.467Z,1019.64
2022-10-09T00:55:54.249Z,1019.64
2022-10-09T00:56:26.248Z,1019.54
2022-10-09T00:56:59.628Z,1019.54
2022-10-09T00:57:30.302Z,1019.64
2022-10-09T00:58:02.144Z,1019.64
2022-10-09T00:58:34.390Z,1019.64
2022-10-09T00:58:57.678Z,1019.44
2022-10-09T00:59:20.071Z,1019.44
2022-10-09T00:59:54.230Z,1019.44
2022-10-09T01:00:26.562Z,1019.74
2022-10-09T01:00:58.336Z,1019.74
2022-10-09T01:01:30.356Z,1019.64
2022-10-09T01:02:02.331Z,1019.64
2022-10-09T01:02:34.570Z,1019.64
2022-10-09T01:02:58.810Z,1019.64
2022-10-09T01:03:20.687Z,1019.64
2022-10-09T01:03:54.158Z,1019.64
2022-10-09T01:04:26.296Z,1019.64
2022-10-09T01:04:58.265Z,1019.64
2022-10-09T01:05:30.325Z,1019.74
2022-10-09T01:06:02.299Z,1019.74
2022-10-09T01:06:34.316Z,1019.81
2022-10-09T01:06:57.110Z,1019.64
2022-10-09T01:07:19.321Z,1019.64
2022-10-09T01:07:54.325Z,1019.64
2022-10-09T01:08:26.256Z,1019.74
2022-10-09T01:08:58.267Z,1019.74
2022-10-09T01:11:55.235Z,1019.54
2022-10-09T01:12:30.116Z,1019.74
2022-10-09T01:12:52.496Z,1019.74
2022-10-09T01:13:30.632Z,1019.81
2022-10-09T01:14:02.181Z,1019.81
2022-10-09T01:14:34.306Z,1019.64
2022-10-09T01:14:57.380Z,1019.54
2022-10-09T01:15:20.170Z,1019.54
2022-10-09T01:15:54.249Z,1019.54
2022-10-09T01:16:26.344Z,1019.81
2022-10-09T01:16:58.310Z,1019.81
2022-10-09T01:17:30.272Z,1019.44
2022-10-09T01:18:02.211Z,1019.44
2022-10-09T01:18:34.234Z,1019.54
2022-10-09T01:18:57.849Z,1019.64
2022-10-09T01:19:20.307Z,1019.64
2022-10-09T01:19:54.235Z,1019.64
2022-10-09T01:20:26.170Z,1019.54
2022-10-09T01:20:58.357Z,1019.54
2022-10-09T01:21:30.120Z,1019.54
2022-10-09T01:22:02.623Z,1019.54
2022-10-09T01:22:37.586Z,1019.64
2022-10-09T01:22:57.024Z,1019.54
2022-10-09T01:23:19.406Z,1019.54
2022-10-09T01:23:54.492Z,1019.54
2022-10-09T01:24:26.098Z,1019.64
2022-10-09T01:24:58.180Z,1019.64
2022-10-09T01:25:30.475Z,1019.64
2022-10-09T01:26:02.282Z,1019.64
2022-10-09T01:26:34.096Z,1019.54
2022-10-09T01:26:57.412Z,1019.64
2022-10-09T01:27:19.789Z,1019.64
2022-10-09T01:27:54.378Z,1019.64
2022-10-09T01:28:26.211Z,1019.54
2022-10-09T01:28:58.194Z,1019.54
2022-10-09T01:29:30.204Z,1019.54
2022-10-09T01:30:02.782Z,1019.54
2022-10-09T01:30:34.948Z,1019.54
2022-10-09T01:30:57.733Z,1019.34
2022-10-09T01:31:19.555Z,1019.34
2022-10-09T01:31:54.277Z,1019.34
2022-10-09T01:32:26.294Z,1019.34
2022-10-09T01:32:59.251Z,1019.34
2022-10-09T01:33:30.504Z,1019.34
2022-10-09T01:34:02.168Z,1019.34
2022-10-09T01:34:34.200Z,1019.34
2022-10-09T01:34:57.804Z,1019.34
2022-10-09T01:35:20.119Z,1019.34
2022-10-09T01:35:54.453Z,1019.34
2022-10-09T01:36:26.253Z,1019.64
2022-10-09T01:36:58.239Z,1019.64
2022-10-09T01:37:30.149Z,1019.54
2022-10-09T01:38:02.200Z,1019.54
2022-10-09T01:38:34.131Z,1019.54
2022-10-09T01:38:57.130Z,1019.34
2022-10-09T01:39:19.521Z,1019.34
2022-10-09T01:39:56.673Z,1019.34
2022-10-09T01:40:26.219Z,1019.44
2022-10-09T01:40:58.302Z,1019.44
2022-10-09T01:41:30.587Z,1019.23
2022-10-09T01:42:02.219Z,1019.23
2022-10-09T01:42:34.396Z,1019.74
2022-10-09T01:42:57.956Z,1019.44
2022-10-09T01:43:20.334Z,1019.44
2022-10-09T01:43:54.285Z,1019.44
2022-10-09T01:44:26.226Z,1019.54
2022-10-09T01:44:58.236Z,1019.54
2022-10-09T01:45:30.291Z,1019.44
2022-10-09T01:46:02.262Z,1019.44
2022-10-09T01:46:34.294Z,1019.44
2022-10-09T01:46:56.842Z,1019.44
2022-10-09T01:47:19.259Z,1019.44
2022-10-09T01:47:54.183Z,1019.44
2022-10-09T01:48:26.216Z,1019.44
2022-10-09T01:48:58.097Z,1019.44
2022-10-09T01:49:30.263Z,1019.44
2022-10-09T01:50:02.228Z,1019.44
2022-10-09T01:50:34.074Z,1019.23
2022-10-09T01:50:56.876Z,1019.44
2022-10-09T01:51:19.239Z,1019.44
2022-10-09T01:51:54.218Z,1019.44
2022-10-09T01:52:26.554Z,1019.44
2022-10-09T01:52:58.240Z,1019.44
2022-10-09T01:53:30.120Z,1019.44
2022-10-09T01:54:02.212Z,1019.44
2022-10-09T01:54:34.243Z,1019.44
2022-10-09T01:54:57.072Z,1019.34
2022-10-09T01:55:19.482Z,1019.34
2022-10-09T01:55:54.268Z,1019.34
2022-10-09T01:56:26.188Z,1019.64
2022-10-09T01:56:59.625Z,1019.64
2022-10-09T01:57:30.165Z,1019.44
2022-10-09T01:58:02.254Z,1019.44
2022-10-09T01:58:34.146Z,1019.34
2022-10-09T01:58:56.985Z,1019.23
2022-10-09T01:59:19.928Z,1019.23
2022-10-09T01:59:54.288Z,1019.23
2022-10-09T02:00:30.569Z,1019.44
2022-10-09T02:00:58.272Z,1019.44
2022-10-09T02:01:33.903Z,1019.34
2022-10-09T02:02:02.393Z,1019.34
2022-10-09T02:02:34.591Z,1019.34
2022-10-09T02:02:58.597Z,1019.44
2022-10-09T02:03:20.346Z,1019.44
2022-10-09T02:03:54.199Z,1019.44
2022-10-09T02:04:26.210Z,1019.34
2022-10-09T02:04:58.073Z,1019.34
2022-10-09T02:05:30.270Z,1019.34
2022-10-09T02:06:02.467Z,1019.34
2022-10-09T02:06:35.832Z,1019.44
2022-10-09T02:06:58.152Z,1019.23
2022-10-09T02:07:20.496Z,1019.23
2022-10-09T02:07:54.365Z,1019.23
2022-10-09T02:08:26.097Z,1019.34
2022-10-09T02:08:58.207Z,1019.34
2022-10-09T02:09:30.124Z,1019.23
2022-10-09T02:10:02.275Z,1019.23
2022-10-09T02:10:35.678Z,1019.34
2022-10-09T02:10:56.859Z,1019.54
2022-10-09T02:11:19.336Z,1019.54
2022-10-09T02:11:54.364Z,1019.54
2022-10-09T02:12:26.243Z,1019.44
2022-10-09T02:12:58.128Z,1019.44
2022-10-09T02:13:30.094Z,1019.23
2022-10-09T02:14:02.267Z,1019.23
2022-10-09T02:14:34.225Z,1019.44
2022-10-09T02:14:58.226Z,1019.23
2022-10-09T02:15:20.547Z,1019.23
2022-10-09T02:15:54.363Z,1019.23
2022-10-09T02:16:26.407Z,1019.34
2022-10-09T02:16:58.113Z,1019.34
2022-10-09T02:17:30.385Z,1019.44
2022-10-09T02:18:02.607Z,1019.44
2022-10-09T02:18:35.731Z,1019.44
2022-10-09T02:18:58.433Z,1019.23
2022-10-09T02:19:19.272Z,1019.23
2022-10-09T02:19:54.339Z,1019.23
2022-10-09T02:20:26.210Z,1019.34
2022-10-09T02:20:58.318Z,1019.34
2022-10-09T02:21:30.112Z,1019.54
2022-10-09T02:22:02.164Z,1019.54
2022-10-09T02:22:34.212Z,1019.34
2022-10-09T02:22:58.925Z,1019.34
2022-10-09T02:23:19.677Z,1019.34
2022-10-09T02:23:54.317Z,1019.34
2022-10-09T02:24:26.378Z,1019.44
2022-10-09T02:24:58.156Z,1019.44
2022-10-09T02:25:30.210Z,1019.44
2022-10-09T02:26:02.253Z,1019.44
2022-10-09T02:26:34.238Z,1019.54
2022-10-09T02:26:57.090Z,1019.23
2022-10-09T02:27:19.482Z,1019.23
2022-10-09T02:27:54.261Z,1019.23
2022-10-09T02:28:26.351Z,1019.13
2022-10-09T02:28:58.102Z,1019.13
2022-10-09T02:29:30.246Z,1019.44
2022-10-09T02:30:02.583Z,1019.44
2022-10-09T02:30:34.201Z,1019.74
2022-10-09T02:30:57.637Z,1019.54
2022-10-09T02:31:20.016Z,1019.54
2022-10-09T02:31:54.278Z,1019.54
2022-10-09T02:32:26.339Z,1019.34
2022-10-09T02:32:58.074Z,1019.34
2022-10-09T02:33:30.196Z,1019.34
2022-10-09T02:34:02.060Z,1019.34
2022-10-09T02:34:34.226Z,1019.23
2022-10-09T02:34:56.929Z,1019.34
2022-10-09T02:35:19.353Z,1019.34
2022-10-09T02:35:54.150Z,1019.34
2022-10-09T02:36:26.573Z,1019.34
2022-10-09T02:36:58.240Z,1019.34
2022-10-09T02:37:30.545Z,1019.23
2022-10-09T02:38:02.216Z,1019.23
2022-10-09T02:38:34.373Z,1019.23
2022-10-09T02:38:57.002Z,1019.44
2022-10-09T02:39:19.341Z,1019.44
2022-10-09T02:39:54.367Z,1019.44
2022-10-09T02:40:26.198Z,1019.34
2022-10-09T02:40:58.114Z,1019.34
2022-10-09T02:41:30.155Z,1019.44
2022-10-09T02:42:02.294Z,1019.44
2022-10-09T02:42:34.128Z,1019.44
2022-10-09T02:42:56.681Z,1019.44
2022-10-09T02:43:19.183Z,1019.44
2022-10-09T02:43:54.160Z,1019.44
2022-10-09T02:44:26.366Z,1019.23
2022-10-09T02:44:58.254Z,1019.23
2022-10-09T02:45:30.113Z,1019.23
2022-10-09T02:46:02.238Z,1019.23
2022-10-09T02:46:34.717Z,1019.34
2022-10-09T02:46:57.491Z,1019.23
2022-10-09T02:47:19.721Z,1019.23
2022-10-09T02:47:54.139Z,1019.23
2022-10-09T02:48:26.243Z,1019.44
2022-10-09T02:48:58.073Z,1019.44
2022-10-09T02:49:30.517Z,1019.23
2022-10-09T02:50:02.703Z,1019.23
2022-10-09T02:50:34.230Z,1019.34
2022-10-09T02:50:57.170Z,1019.23
2022-10-09T02:51:19.514Z,1019.23
2022-10-09T02:51:54.327Z,1019.23
2022-10-09T02:52:26.188Z,1019.13
2022-10-09T02:52:58.218Z,1019.13
2022-10-09T02:53:30.286Z,1019.23
2022-10-09T02:54:02.111Z,1019.23
2022-10-09T02:54:34.178Z,1019.44
2022-10-09T02:54:57.026Z,1019.13
2022-10-09T02:55:19.309Z,1019.13
2022-10-09T02:55:54.191Z,1019.13
2022-10-09T02:56:26.226Z,1019.34
2022-10-09T02:57:03.918Z,1019.34
2022-10-09T02:57:30.219Z,1019.34
2022-10-09T02:58:02.260Z,1019.34
2022-10-09T02:58:34.181Z,1019.23
2022-10-09T02:58:56.885Z,1019.34
2022-10-09T02:59:19.340Z,1019.34
2022-10-09T02:59:54.217Z,1019.34
2022-10-09T03:00:26.189Z,1019.44
2022-10-09T03:00:58.675Z,1019.44
2022-10-09T03:01:30.704Z,1019.34
2022-10-09T03:02:02.400Z,1019.34
2022-10-09T03:02:35.724Z,1019.23
2022-10-09T03:02:57.345Z,1019.13
2022-10-09T03:03:19.504Z,1019.13
2022-10-09T03:03:54.201Z,1019.13
2022-10-09T03:04:29.614Z,1019.34
2022-10-09T03:04:58.098Z,1019.34
2022-10-09T03:05:30.326Z,1019.44
2022-10-09T03:06:02.225Z,1019.44
2022-10-09T03:06:34.196Z,1019.23
2022-10-09T03:06:57.348Z,1019.44
2022-10-09T03:07:19.584Z,1019.44
2022-10-09T03:07:54.081Z,1019.44
2022-10-09T03:08:26.302Z,1019.23
2022-10-09T03:08:58.168Z,1019.23
2022-10-09T03:09:33.560Z,1019.13
2022-10-09T03:10:02.154Z,1019.13
2022-10-09T03:10:34.263Z,1019.34
2022-10-09T03:10:57.868Z,1019.23
2022-10-09T03:11:20.188Z,1019.23
2022-10-09T03:11:54.415Z,1019.23
2022-10-09T03:12:26.064Z,1019.44
2022-10-09T03:12:58.234Z,1019.44
2022-10-09T03:13:30.170Z,1019.23
2022-10-09T03:14:02.186Z,1019.23
2022-10-09T03:14:34.081Z,1019.34
2022-10-09T03:14:57.202Z,1019.13
2022-10-09T03:15:20.053Z,1019.13
2022-10-09T03:15:54.513Z,1019.13
2022-10-09T03:16:26.322Z,1019.44
2022-10-09T03:16:58.161Z,1019.44
2022-10-09T03:17:30.580Z,1019.34
2022-10-09T03:18:02.053Z,1019.34
2022-10-09T03:18:34.602Z,1019.34
2022-10-09T03:18:57.430Z,1019.44
2022-10-09T03:19:19.952Z,1019.44
2022-10-09T03:19:54.184Z,1019.44
2022-10-09T03:20:26.927Z,1019.23
2022-10-09T03:20:58.151Z,1019.23
2022-10-09T03:21:30.580Z,1019.34
2022-10-09T03:22:02.091Z,1019.34
2022-10-09T03:22:34.193Z,1019.34
2022-10-09T03:22:57.246Z,1019.34
2022-10-09T03:23:19.523Z,1019.34
2022-10-09T03:23:55.676Z,1019.34
2022-10-09T03:24:26.123Z,1019.44
2022-10-09T03:24:58.127Z,1019.44
2022-10-09T03:25:30.245Z,1019.23
2022-10-09T03:26:02.156Z,1019.23
2022-10-09T03:26:34.157Z,1019.34
2022-10-09T03:26:57.112Z,1019.44
2022-10-09T03:27:19.498Z,1019.44
2022-10-09T03:27:54.513Z,1019.44
2022-10-09T03:28:26.231Z,1019.44
2022-10-09T03:28:58.263Z,1019.44
2022-10-09T03:29:30.161Z,1019.23
2022-10-09T03:30:02.369Z,1019.23
2022-10-09T03:30:34.113Z,1019.13
2022-10-09T03:30:56.945Z,1019.13
2022-10-09T03:31:39.719Z,1019.13
2022-10-09T03:31:54.399Z,1019.13
2022-10-09T03:32:26.100Z,1019.34
2022-10-09T03:32:58.045Z,1019.34
2022-10-09T03:33:30.363Z,1019.34
2022-10-09T03:34:02.212Z,1019.34
2022-10-09T03:34:28.487Z,1019.34
2022-10-09T03:35:02.253Z,1019.54
2022-10-09T03:35:38.170Z,1019.54
2022-10-09T03:36:00.712Z,1019.23
2022-10-09T03:36:23.096Z,1019.23
2022-10-09T03:36:58.206Z,1019.23
2022-10-09T03:37:30.337Z,1019.44
2022-10-09T03:38:02.192Z,1019.44
2022-10-09T03:38:35.728Z,1019.44
2022-10-09T03:38:59.881Z,1019.44
2022-10-09T03:39:21.129Z,1019.44
2022-10-09T03:39:56.297Z,1019.44
2022-10-09T03:40:26.366Z,1019.44
2022-10-09T03:40:58.387Z,1019.44
2022-10-09T03:41:30.118Z,1019.34
2022-10-09T03:42:02.191Z,1019.34
2022-10-09T03:42:34.099Z,1019.44
2022-10-09T03:42:56.766Z,1019.34
2022-10-09T03:43:19.443Z,1019.34
2022-10-09T03:43:54.989Z,1019.34
2022-10-09T03:44:27.002Z,1019.34
2022-10-09T03:44:58.239Z,1019.34
2022-10-09T03:45:31.046Z,1019.23
2022-10-09T03:46:02.319Z,1019.23
2022-10-09T03:46:35.100Z,1019.03
2022-10-09T03:46:57.874Z,1019.13
2022-10-09T03:47:20.210Z,1019.13
2022-10-09T03:47:54.244Z,1019.13
2022-10-09T03:48:26.284Z,1019.34
2022-10-09T03:49:00.205Z,1019.44
2022-10-09T03:49:30.364Z,1019.44
2022-10-09T03:50:02.155Z,1019.44
2022-10-09T03:50:34.239Z,1019.23
2022-10-09T03:50:56.791Z,1019.34
2022-10-09T03:51:20.261Z,1019.34
2022-10-09T03:51:54.271Z,1019.34
2022-10-09T03:52:31.375Z,1019.34
2022-10-09T03:52:53.893Z,1019.34
2022-10-09T03:53:30.263Z,1019.34
2022-10-09T03:54:02.132Z,1019.34
2022-10-09T03:54:34.207Z,1019.23
2022-10-09T03:54:57.233Z,1019.34
2022-10-09T03:55:19.658Z,1019.34
2022-10-09T03:55:54.079Z,1019.34
2022-10-09T03:56:26.066Z,1019.34
2022-10-09T03:56:58.492Z,1019.34
2022-10-09T03:57:30.308Z,1019.23
2022-10-09T03:58:02.046Z,1019.23
2022-10-09T03:58:34.251Z,1019.23
2022-10-09T03:58:57.047Z,1019.13
2022-10-09T03:59:19.630Z,1019.13
2022-10-09T03:59:54.249Z,1019.13
2022-10-09T04:00:26.313Z,1019.23
2022-10-09T04:00:58.325Z,1019.23
2022-10-09T04:01:30.383Z,1019.23
2022-10-09T04:02:02.322Z,1019.23
2022-10-09T04:02:35.804Z,1019.23
2022-10-09T04:02:58.000Z,1019.34
2022-10-09T04:03:19.913Z,1019.34
2022-10-09T04:03:54.339Z,1019.34
2022-10-09T04:04:26.430Z,1019.34
2022-10-09T04:04:58.345Z,1019.34
2022-10-09T04:05:30.439Z,1019.34
2022-10-09T04:06:02.225Z,1019.34
2022-10-09T04:06:34.258Z,1019.23
2022-10-09T04:06:57.368Z,1019.23
2022-10-09T04:07:19.257Z,1019.23
2022-10-09T04:09:00.642Z,1019.23
2022-10-09T04:09:05.272Z,1019.23
2022-10-09T04:09:27.455Z,1019.23
2022-10-09T04:10:02.335Z,1019.23
2022-10-09T04:10:35.632Z,1019.23
2022-10-09T04:10:58.414Z,1019.23
2022-10-09T04:11:20.837Z,1019.23
2022-10-09T04:11:54.166Z,1019.23
2022-10-09T04:12:26.216Z,1019.54
2022-10-09T04:12:59.915Z,1019.44
2022-10-09T04:13:30.300Z,1019.44
2022-10-09T04:14:02.836Z,1019.44
2022-10-09T04:14:34.381Z,1019.23
2022-10-09T04:15:02.666Z,1019.34
2022-10-09T04:15:24.432Z,1019.34
2022-10-09T04:15:54.782Z,1019.34
2022-10-09T04:16:26.839Z,1019.44
2022-10-09T04:16:58.131Z,1019.44
2022-10-09T04:17:31.750Z,1019.34
2022-10-09T04:18:02.611Z,1019.34
2022-10-09T04:18:34.408Z,1019.44
2022-10-09T04:18:57.179Z,1019.34
2022-10-09T04:19:19.918Z,1019.34
2022-10-09T04:19:54.981Z,1019.34
2022-10-09T04:20:26.711Z,1019.34
2022-10-09T04:20:58.786Z,1019.34
2022-10-09T04:21:30.151Z,1019.23
2022-10-09T04:22:02.623Z,1019.23
2022-10-09T04:22:34.702Z,1019.03
2022-10-09T04:22:57.555Z,1019.13
2022-10-09T04:23:20.349Z,1019.13
2022-10-09T04:23:55.545Z,1019.13
2022-10-09T04:24:27.175Z,1019.23
2022-10-09T04:24:58.197Z,1019.23
2022-10-09T04:25:30.309Z,1019.23
2022-10-09T04:26:02.499Z,1019.23
2022-10-09T04:26:34.202Z,1019.44
2022-10-09T04:26:57.009Z,1019.34
2022-10-09T04:27:19.357Z,1019.34
2022-10-09T04:27:55.504Z,1019.34
2022-10-09T04:28:26.243Z,1019.13
2022-10-09T04:28:58.682Z,1019.13
2022-10-09T04:29:30.162Z,1019.23
2022-10-09T04:30:02.435Z,1019.23
2022-10-09T04:30:34.218Z,1019.13
2022-10-09T04:30:56.882Z,1019.34
2022-10-09T04:31:21.550Z,1019.34
2022-10-09T04:31:54.502Z,1019.34
2022-10-09T04:32:26.179Z,1019.23
2022-10-09T04:32:58.169Z,1019.23
2022-10-09T04:33:30.332Z,1019.34
2022-10-09T04:34:02.135Z,1019.34
2022-10-09T04:34:34.239Z,1019.44
2022-10-09T04:34:57.015Z,1019.13
2022-10-09T04:35:20.138Z,1019.13
2022-10-09T04:35:54.685Z,1019.13
2022-10-09T04:36:26.674Z,1019.23
2022-10-09T04:36:58.285Z,1019.23
2022-10-09T04:37:30.076Z,1019.34
2022-10-09T04:38:02.274Z,1019.34
2022-10-09T04:38:35.674Z,1019.34
2022-10-09T04:38:57.008Z,1019.13
2022-10-09T04:39:19.975Z,1019.13
2022-10-09T04:39:56.091Z,1019.13
2022-10-09T04:40:27.271Z,1019.03
2022-10-09T04:40:58.599Z,1019.03
2022-10-09T04:41:33.532Z,1019.13
2022-10-09T04:42:02.102Z,1019.13
2022-10-09T04:42:34.166Z,1019.23
2022-10-09T04:42:56.866Z,1019.03
2022-10-09T04:43:19.299Z,1019.03
2022-10-09T04:43:54.319Z,1019.03
2022-10-09T04:44:26.214Z,1019.23
2022-10-09T04:44:58.126Z,1019.23
2022-10-09T04:45:31.097Z,1019.23
2022-10-09T04:46:02.838Z,1019.23
2022-10-09T04:46:34.964Z,1019.13
2022-10-09T04:46:57.694Z,1019.23
2022-10-09T04:47:20.714Z,1019.23
2022-10-09T04:47:54.501Z,1019.23
2022-10-09T04:48:27.986Z,1019.13
2022-10-09T04:48:58.261Z,1019.13
2022-10-09T04:49:31.954Z,1018.93
2022-10-09T04:50:04.097Z,1018.93
2022-10-09T04:50:34.555Z,1019.23
2022-10-09T04:50:57.262Z,1019.34
2022-10-09T04:51:19.641Z,1019.34
2022-10-09T04:51:54.559Z,1019.34
2022-10-09T04:52:26.218Z,1019.23
2022-10-09T04:52:58.286Z,1019.23
2022-10-09T04:53:30.044Z,1019.34
2022-10-09T04:54:02.205Z,1019.34
2022-10-09T04:54:34.372Z,1019.03
2022-10-09T04:54:56.993Z,1019.13
2022-10-09T04:55:19.843Z,1019.13
2022-10-09T04:55:54.233Z,1019.13
2022-10-09T04:56:26.927Z,1019.34
2022-10-09T04:56:58.056Z,1019.34
2022-10-09T04:57:30.711Z,1019.03
2022-10-09T04:58:02.438Z,1019.03
2022-10-09T04:58:35.084Z,1019.03
2022-10-09T04:58:57.666Z,1019.44
2022-10-09T04:59:20.145Z,1019.44
2022-10-09T04:59:54.235Z,1019.44
2022-10-09T05:00:26.228Z,1019.13
2022-10-09T05:01:00.481Z,1019.23
2022-10-09T05:01:33.119Z,1019.23
2022-10-09T05:02:04.124Z,1019.23
2022-10-09T05:02:35.717Z,1019.23
2022-10-09T05:02:57.238Z,1019.23
2022-10-09T05:03:20.336Z,1019.23
2022-10-09T05:03:54.179Z,1019.23
2022-10-09T05:04:26.399Z,1019.23
2022-10-09T05:04:58.355Z,1019.23
2022-10-09T05:05:30.513Z,1019.13
2022-10-09T05:06:02.177Z,1019.13
2022-10-09T05:06:34.302Z,1019.13
2022-10-09T05:06:57.001Z,1019.13
2022-10-09T05:07:19.474Z,1019.13
2022-10-09T05:07:55.294Z,1019.13
2022-10-09T05:08:28.260Z,1019.23
2022-10-09T05:08:58.144Z,1019.23
2022-10-09T05:09:30.467Z,1019.23
2022-10-09T05:10:04.599Z,1019.23
2022-10-09T05:10:34.146Z,1019.34
2022-10-09T05:10:57.170Z,1019.13
2022-10-09T05:11:19.841Z,1019.13
2022-10-09T05:11:54.396Z,1019.13
2022-10-09T05:12:26.215Z,1019.44
2022-10-09T05:12:58.499Z,1019.44
2022-10-09T05:13:30.722Z,1019.34
2022-10-09T05:14:02.155Z,1019.34
2022-10-09T05:14:34.676Z,1019.23
2022-10-09T05:14:57.354Z,1019.34
2022-10-09T05:15:21.162Z,1019.34
2022-10-09T05:15:54.956Z,1019.34
2022-10-09T05:16:26.325Z,1019.44
2022-10-09T05:17:13.609Z,1019.13
2022-10-09T05:17:30.514Z,1019.13
2022-10-09T05:18:03.270Z,1019.13
2022-10-09T05:18:34.699Z,1019.23
2022-10-09T05:18:57.542Z,1019.34
2022-10-09T05:19:20.389Z,1019.34
2022-10-09T05:19:54.552Z,1019.34
2022-10-09T05:20:26.725Z,1019.23
2022-10-09T05:20:58.636Z,1019.23
2022-10-09T05:21:30.233Z,1019.23
2022-10-09T05:22:02.660Z,1019.23
2022-10-09T05:22:35.501Z,1019.34
2022-10-09T05:22:57.862Z,1019.44
2022-10-09T05:23:20.200Z,1019.44
2022-10-09T05:23:54.469Z,1019.44
2022-10-09T05:24:26.265Z,1019.34
2022-10-09T05:24:58.605Z,1019.34
2022-10-09T05:25:30.171Z,1019.54
2022-10-09T05:26:06.113Z,1019.54
2022-10-09T05:26:34.810Z,1019.54
2022-10-09T05:26:57.570Z,1019.54
2022-10-09T05:27:20.416Z,1019.54
2022-10-09T05:27:54.961Z,1019.54
2022-10-09T05:28:26.817Z,1019.34
2022-10-09T05:28:58.333Z,1019.34
2022-10-09T05:29:31.346Z,1019.54
2022-10-09T05:30:03.201Z,1019.54
2022-10-09T05:30:34.234Z,1019.44
2022-10-09T05:30:56.894Z,1019.54
2022-10-09T05:31:19.571Z,1019.54
2022-10-09T05:31:54.473Z,1019.54
2022-10-09T05:32:26.257Z,1019.54
2022-10-09T05:32:58.274Z,1019.54
2022-10-09T05:33:30.213Z,1019.23
2022-10-09T05:34:02.326Z,1019.23
2022-10-09T05:34:34.223Z,1019.64
2022-10-09T05:34:57.076Z,1019.64
2022-10-09T05:35:19.991Z,1019.64
2022-10-09T05:35:54.250Z,1019.64
2022-10-09T05:36:26.995Z,1019.64
2022-10-09T05:36:58.709Z,1019.64
2022-10-09T05:37:30.272Z,1019.44
2022-10-09T05:38:02.244Z,1019.44
2022-10-09T05:38:34.658Z,1019.74
2022-10-09T05:38:57.335Z,1019.54
2022-10-09T05:39:19.680Z,1019.54
2022-10-09T05:40:02.474Z,1019.64
2022-10-09T05:40:28.401Z,1019.64
2022-10-09T05:40:58.456Z,1019.64
2022-10-09T05:41:30.357Z,1019.64
2022-10-09T05:42:02.412Z,1019.64
2022-10-09T05:42:34.663Z,1019.54
2022-10-09T05:42:56.993Z,1019.64
2022-10-09T05:43:19.869Z,1019.64
2022-10-09T05:43:55.254Z,1019.64
2022-10-09T05:44:27.154Z,1019.74
2022-10-09T05:44:58.785Z,1019.74
2022-10-09T05:45:31.271Z,1019.74
2022-10-09T05:46:02.429Z,1019.74
2022-10-09T05:46:36.713Z,1019.81
2022-10-09T05:46:59.385Z,1019.74
2022-10-09T05:47:22.743Z,1019.74
2022-10-09T05:47:54.549Z,1019.74
2022-10-09T05:48:31.842Z,1019.54
2022-10-09T05:48:59.163Z,1019.54
2022-10-09T05:49:30.624Z,1019.64
2022-10-09T05:50:02.691Z,1019.64
2022-10-09T05:50:34.306Z,1019.91
2022-10-09T05:50:57.064Z,1019.74
2022-10-09T05:51:19.788Z,1019.74
2022-10-09T05:51:54.326Z,1019.74
2022-10-09T05:52:27.329Z,1019.74
2022-10-09T05:52:58.437Z,1019.74
2022-10-09T05:53:31.009Z,1019.54
2022-10-09T05:54:02.300Z,1019.54
2022-10-09T05:54:34.340Z,1019.44
2022-10-09T05:54:57.222Z,1019.44
2022-10-09T05:55:20.065Z,1019.44
2022-10-09T05:56:03.484Z,1019.44
2022-10-09T05:56:26.336Z,1019.54
2022-10-09T05:56:58.700Z,1019.54
2022-10-09T05:57:30.600Z,1019.74
2022-10-09T05:58:02.695Z,1019.74
2022-10-09T05:58:34.282Z,1019.54
2022-10-09T05:58:57.027Z,1019.64
2022-10-09T05:59:19.708Z,1019.64
2022-10-09T05:59:54.643Z,1019.64
2022-10-09T06:00:26.613Z,1019.64
2022-10-09T06:01:00.774Z,1019.54
2022-10-09T06:01:32.594Z,1019.54
2022-10-09T06:02:04.066Z,1019.54
2022-10-09T06:02:34.520Z,1019.54
2022-10-09T06:02:57.368Z,1019.44
2022-10-09T06:03:19.604Z,1019.44
2022-10-09T06:03:55.349Z,1019.44
2022-10-09T06:04:26.351Z,1019.54
2022-10-09T06:04:59.068Z,1019.54
2022-10-09T06:05:30.856Z,1019.34
2022-10-09T06:06:03.143Z,1019.34